Time;durP1;ratioP1;P1;durP2;ratioP2;P2;SDS_P1;SDS_P2;PMS_P1;PMS_P2;Temp;Humidity;BMP_temperature;BMP_pressure;BME280_temperature;BME280_humidity;BME280_pressure;Samples;Min_cycle;Max_cycle;Signal;HPM_P1;HPM_P2
2023/08/08 00:00:32;;;;;;;6.57;4.70;;;14.50;99.90;;;;;;5012208;28;21018;-65
2023/08/08 00:02:59;;;;;;;6.87;5.37;;;14.40;99.90;;;;;;5003060;28;20481;-66
2023/08/08 00:05:26;;;;;;;11.30;7.83;;;14.20;99.90;;;;;;5009279;28;21047;-66
2023/08/08 00:07:52;;;;;;;7.77;5.33;;;13.20;99.90;;;;;;5012135;28;20479;-65
2023/08/08 00:10:21;;;;;;;13.23;7.90;;;14.30;99.90;;;;;;5013924;28;20872;-65
2023/08/08 00:12:48;;;;;;;7.50;6.13;;;14.30;99.90;;;;;;5011644;28;21010;-65
2023/08/08 00:15:15;;;;;;;12.10;9.13;;;14.50;99.90;;;;;;5014710;28;20695;-64
2023/08/08 00:17:41;;;;;;;7.80;5.50;;;14.50;99.90;;;;;;4997164;28;20537;-65
2023/08/08 00:20:09;;;;;;;16.50;9.80;;;14.70;99.90;;;;;;5015762;28;20563;-65
2023/08/08 00:22:36;;;;;;;8.10;6.80;;;14.70;99.90;;;;;;4994741;28;21033;-65
2023/08/08 00:25:04;;;;;;;6.83;5.83;;;14.70;99.90;;;;;;5013303;28;20784;-65
2023/08/08 00:27:32;;;;;;;6.03;4.13;;;14.70;99.90;;;;;;5015544;28;20474;-64
2023/08/08 00:29:59;;;;;;;5.77;4.90;;;14.70;99.90;;;;;;4999203;28;20583;-65
2023/08/08 00:32:26;;;;;;;7.57;6.50;;;14.60;99.90;;;;;;5012800;28;20992;-65
2023/08/08 00:34:53;;;;;;;7.00;5.60;;;14.60;99.90;;;;;;5011763;28;20492;-65
2023/08/08 00:37:20;;;;;;;9.50;7.77;;;14.60;99.90;;;;;;5006151;28;20498;-64
2023/08/08 00:39:46;;;;;;;5.80;4.83;;;14.70;99.90;;;;;;5003074;28;20586;-64
2023/08/08 00:42:13;;;;;;;15.47;8.93;;;14.60;99.90;;;;;;5023538;28;20473;-64
2023/08/08 00:44:42;;;;;;;6.60;5.00;;;14.60;99.90;;;;;;5003821;28;20498;-65
2023/08/08 00:47:10;;;;;;;10.90;7.87;;;14.50;99.90;;;;;;5010472;28;21022;-64
2023/08/08 00:49:37;;;;;;;8.03;5.50;;;14.60;99.90;;;;;;5014373;28;20656;-64
2023/08/08 00:52:06;;;;;;;11.77;8.80;;;14.70;99.90;;;;;;5008039;28;20491;-64
2023/08/08 00:54:33;;;;;;;8.00;5.90;;;14.70;99.90;;;;;;5015991;28;20815;-64
2023/08/08 00:57:00;;;;;;;6.80;4.67;;;14.80;99.90;;;;;;5001336;28;20574;-64
2023/08/08 00:59:28;;;;;;;7.23;5.87;;;14.70;99.90;;;;;;5013550;28;20486;-65
2023/08/08 01:01:58;;;;;;;5.80;4.87;;;14.60;99.90;;;;;;5018779;28;20920;-64
2023/08/08 01:04:27;;;;;;;15.77;6.87;;;14.50;99.90;;;;;;5011425;28;20491;-65
2023/08/08 01:07:03;;;;;;;9.23;6.13;;;14.50;99.90;;;;;;5007158;28;20556;-64
2023/08/08 01:09:34;;;;;;;7.23;5.33;;;13.00;99.90;;;;;;5018278;28;20653;-64
2023/08/08 01:12:02;;;;;;;8.37;6.57;;;14.50;99.90;;;;;;5010758;28;20827;-64
2023/08/08 01:14:31;;;;;;;10.40;6.90;;;14.60;99.90;;;;;;5016381;28;20805;-65
2023/08/08 01:17:00;;;;;;;7.20;5.43;;;14.50;99.90;;;;;;5013341;28;20957;-65
2023/08/08 01:19:30;;;;;;;8.80;5.87;;;14.60;99.90;;;;;;5011919;28;20464;-65
2023/08/08 01:22:01;;;;;;;10.67;7.10;;;14.60;99.90;;;;;;5022691;28;20588;-65
2023/08/08 01:24:32;;;;;;;11.50;5.80;;;14.60;99.90;;;;;;5000816;28;20480;-65
2023/08/08 01:27:01;;;;;;;6.40;5.13;;;14.70;99.90;;;;;;4998985;28;20984;-65
2023/08/08 01:29:28;;;;;;;8.07;6.50;;;14.60;99.90;;;;;;5014667;28;20984;-65
2023/08/08 01:31:55;;;;;;;15.00;5.33;;;14.70;99.90;;;;;;5015542;28;20491;-65
2023/08/08 01:34:22;;;;;;;6.13;5.50;;;14.60;99.90;;;;;;5011339;28;20569;-65
2023/08/08 01:36:54;;;;;;;8.10;5.67;;;14.60;99.90;;;;;;5011012;28;20610;-65
2023/08/08 01:39:26;;;;;;;11.97;8.60;;;14.60;99.90;;;;;;5012361;28;20883;-64
2023/08/08 01:41:55;;;;;;;13.80;5.07;;;14.60;99.90;;;;;;5013085;28;20571;-64
2023/08/08 01:44:24;;;;;;;7.60;6.27;;;14.70;99.90;;;;;;5013749;28;21101;-65
2023/08/08 01:46:52;;;;;;;6.90;5.80;;;14.80;99.90;;;;;;5009965;28;20483;-64
2023/08/08 01:49:19;;;;;;;8.80;7.27;;;14.80;99.90;;;;;;5010551;28;20852;-65
2023/08/08 01:51:46;;;;;;;10.57;5.70;;;14.70;99.90;;;;;;5014871;28;20496;-65
2023/08/08 01:54:12;;;;;;;13.37;10.50;;;14.70;99.90;;;;;;5009652;28;20570;-65
2023/08/08 01:56:39;;;;;;;9.10;6.00;;;14.70;99.90;;;;;;5011476;28;20512;-65
2023/08/08 01:59:08;;;;;;;10.10;8.00;;;14.70;99.90;;;;;;5013229;28;20581;-65
2023/08/08 02:01:34;;;;;;;6.87;5.30;;;14.60;99.90;;;;;;5012743;28;20480;-65
2023/08/08 02:04:01;;;;;;;8.40;6.07;;;14.60;99.90;;;;;;5014109;28;20474;-65
2023/08/08 02:06:29;;;;;;;8.43;7.17;;;14.70;99.90;;;;;;5014186;28;20667;-65
2023/08/08 02:08:57;;;;;;;7.13;4.87;;;14.80;99.90;;;;;;5016896;28;20474;-65
2023/08/08 02:11:24;;;;;;;12.20;6.47;;;14.80;99.90;;;;;;5015209;28;20574;-65
2023/08/08 02:13:51;;;;;;;7.10;6.17;;;14.80;99.90;;;;;;5016269;28;20548;-66
2023/08/08 02:16:19;;;;;;;14.30;10.40;;;14.70;99.90;;;;;;5015344;28;20903;-65
2023/08/08 02:18:46;;;;;;;7.30;5.53;;;14.60;99.90;;;;;;5019085;28;20501;-65
2023/08/08 02:21:12;;;;;;;14.60;9.80;;;14.70;99.90;;;;;;5016892;28;20483;-65
2023/08/08 02:23:39;;;;;;;6.60;5.57;;;14.80;99.90;;;;;;5013940;28;20486;-66
2023/08/08 02:26:06;;;;;;;6.90;6.03;;;14.80;99.90;;;;;;5015310;28;20488;-65
2023/08/08 02:28:33;;;;;;;7.20;5.83;;;14.80;99.90;;;;;;5015686;28;20486;-65
2023/08/08 02:31:00;;;;;;;7.53;5.27;;;14.90;99.90;;;;;;5023138;28;20867;-65
2023/08/08 02:33:28;;;;;;;9.63;6.03;;;14.80;99.90;;;;;;5022838;28;20505;-65
2023/08/08 02:35:56;;;;;;;10.90;5.40;;;14.80;99.90;;;;;;5020813;28;21157;-65
2023/08/08 02:38:22;;;;;;;11.57;6.83;;;14.80;99.90;;;;;;5017801;28;20579;-66
2023/08/08 02:40:49;;;;;;;6.10;4.77;;;14.80;99.90;;;;;;5022076;28;20489;-65
2023/08/08 02:43:16;;;;;;;13.00;9.60;;;14.70;99.90;;;;;;5019862;28;20475;-65
2023/08/08 02:45:43;;;;;;;9.13;5.63;;;14.70;99.90;;;;;;5020697;28;21415;-65
2023/08/08 02:48:10;;;;;;;16.03;9.73;;;14.80;99.90;;;;;;5025658;28;20580;-65
2023/08/08 02:50:38;;;;;;;5.37;4.60;;;14.80;99.90;;;;;;5027162;28;20488;-65
2023/08/08 02:53:06;;;;;;;9.90;7.77;;;14.70;99.90;;;;;;5019757;28;20503;-65
2023/08/08 02:55:33;;;;;;;8.10;4.97;;;14.90;99.90;;;;;;5019994;28;20995;-66
2023/08/08 02:57:59;;;;;;;6.50;4.90;;;14.90;99.90;;;;;;5028124;28;20492;-66
2023/08/08 03:00:26;;;;;;;7.40;5.30;;;14.90;99.90;;;;;;5010972;28;20478;-66
2023/08/08 03:02:53;;;;;;;12.90;6.40;;;14.90;99.90;;;;;;5039746;28;20476;-65
2023/08/08 03:05:20;;;;;;;18.40;8.87;;;14.80;99.90;;;;;;5010915;28;20484;-65
2023/08/08 03:07:48;;;;;;;6.37;5.13;;;14.60;99.90;;;;;;5024198;28;21210;-66
2023/08/08 03:10:15;;;;;;;13.27;9.33;;;14.50;99.90;;;;;;5020386;28;20547;-65
2023/08/08 03:12:42;;;;;;;8.17;5.83;;;14.30;99.90;;;;;;5022337;28;20481;-66
2023/08/08 03:15:10;;;;;;;11.20;8.33;;;14.20;99.90;;;;;;5013753;28;20910;-65
2023/08/08 03:17:37;;;;;;;10.30;5.80;;;14.00;99.90;;;;;;5016061;28;20530;-65
2023/08/08 03:20:06;;;;;;;9.77;6.23;;;13.90;99.90;;;;;;5015373;28;20567;-65
2023/08/08 03:22:33;;;;;;;8.77;6.00;;;13.90;99.90;;;;;;5032239;28;20483;-65
2023/08/08 03:25:02;;;;;;;6.37;5.20;;;13.70;99.90;;;;;;5020007;28;20476;-65
2023/08/08 03:27:29;;;;;;;8.33;6.50;;;13.60;99.90;;;;;;5019780;28;20485;-64
2023/08/08 03:29:56;;;;;;;8.20;6.10;;;13.60;99.90;;;;;;5022566;28;20474;-65
2023/08/08 03:32:23;;;;;;;8.20;6.40;;;13.60;99.90;;;;;;5019246;28;20820;-65
2023/08/08 03:34:50;;;;;;;8.00;5.17;;;13.60;99.90;;;;;;5027656;28;21010;-65
2023/08/08 03:37:17;;;;;;;12.60;8.70;;;13.60;99.90;;;;;;5026188;28;20472;-65
2023/08/08 03:39:43;;;;;;;14.33;7.07;;;13.70;99.90;;;;;;5018363;28;20887;-65
2023/08/08 03:42:12;;;;;;;19.50;9.60;;;13.70;99.90;;;;;;5019280;28;21097;-65
2023/08/08 03:44:39;;;;;;;12.00;6.30;;;13.60;99.90;;;;;;5009017;28;26509;-65
2023/08/08 03:47:06;;;;;;;12.27;8.03;;;13.50;99.90;;;;;;5017867;28;20489;-65
2023/08/08 03:49:33;;;;;;;8.80;7.23;;;13.40;99.90;;;;;;5011570;28;20479;-65
2023/08/08 03:52:00;;;;;;;10.37;6.17;;;13.30;99.90;;;;;;5009555;28;21044;-65
2023/08/08 03:54:27;;;;;;;14.43;6.03;;;13.40;99.90;;;;;;5009186;28;21016;-65
2023/08/08 03:56:54;;;;;;;7.00;4.90;;;13.30;99.90;;;;;;5027708;28;20477;-65
2023/08/08 03:59:22;;;;;;;17.10;9.60;;;13.20;99.90;;;;;;5008767;28;20580;-65
2023/08/08 04:01:49;;;;;;;8.37;5.50;;;13.10;99.90;;;;;;5014518;28;20853;-66
2023/08/08 04:04:16;;;;;;;15.03;10.37;;;13.10;99.90;;;;;;5013966;28;20475;-65
2023/08/08 04:06:42;;;;;;;9.23;5.90;;;13.00;99.90;;;;;;5016405;28;20485;-65
2023/08/08 04:09:09;;;;;;;21.77;12.60;;;13.10;99.90;;;;;;5015042;28;20689;-66
2023/08/08 04:11:36;;;;;;;13.17;5.63;;;13.00;99.90;;;;;;5032932;28;21112;-65
2023/08/08 04:14:04;;;;;;;8.63;6.33;;;12.90;99.90;;;;;;5017808;28;20474;-65
2023/08/08 04:16:32;;;;;;;9.90;5.33;;;12.90;99.90;;;;;;5017048;28;20644;-65
2023/08/08 04:18:59;;;;;;;12.77;7.00;;;12.90;99.90;;;;;;5014664;28;20487;-65
2023/08/08 04:21:28;;;;;;;10.27;7.07;;;12.80;99.90;;;;;;5006590;28;21097;-66
2023/08/08 04:23:55;;;;;;;12.90;5.67;;;12.70;99.90;;;;;;5026384;28;21012;-66
2023/08/08 04:26:22;;;;;;;13.07;8.30;;;12.70;99.90;;;;;;4991366;28;20491;-65
2023/08/08 04:28:49;;;;;;;12.77;7.87;;;12.60;99.90;;;;;;5016270;28;20902;-66
2023/08/08 04:31:16;;;;;;;19.20;11.73;;;12.60;99.90;;;;;;5020120;28;20467;-65
2023/08/08 04:33:44;;;;;;;6.57;5.20;;;12.50;99.90;;;;;;5014985;28;20489;-65
2023/08/08 04:36:11;;;;;;;19.37;11.00;;;12.50;99.90;;;;;;5018852;28;21028;-65
2023/08/08 04:38:38;;;;;;;11.13;7.47;;;12.50;99.90;;;;;;5022476;28;20567;-66
2023/08/08 04:41:05;;;;;;;12.20;9.07;;;12.50;99.90;;;;;;5013884;28;20567;-65
2023/08/08 04:43:32;;;;;;;14.27;6.30;;;12.50;99.90;;;;;;5008855;28;20684;-66
2023/08/08 04:45:58;;;;;;;10.37;7.23;;;12.40;99.90;;;;;;5014010;28;20576;-66
2023/08/08 04:48:25;;;;;;;12.60;6.70;;;12.40;99.90;;;;;;5016387;28;20499;-65
2023/08/08 04:50:53;;;;;;;10.23;7.00;;;12.40;99.90;;;;;;5023610;28;20540;-66
2023/08/08 04:53:20;;;;;;;16.00;9.60;;;12.40;99.90;;;;;;5017197;28;21089;-66
2023/08/08 04:55:47;;;;;;;11.17;6.70;;;12.40;99.90;;;;;;5011060;28;20916;-66
2023/08/08 04:58:14;;;;;;;16.97;10.67;;;12.30;99.90;;;;;;5015259;28;20925;-66
2023/08/08 05:00:41;;;;;;;11.20;5.70;;;12.20;99.90;;;;;;5029008;28;20826;-65
2023/08/08 05:03:08;;;;;;;20.37;11.37;;;12.20;99.90;;;;;;5022652;28;20482;-66
2023/08/08 05:05:35;;;;;;;12.87;8.23;;;12.20;99.90;;;;;;5016967;28;20500;-66
2023/08/08 05:08:03;;;;;;;12.07;7.57;;;12.20;99.90;;;;;;5018968;28;21377;-66
2023/08/08 05:10:31;;;;;;;12.30;6.90;;;12.30;99.90;;;;;;5018891;28;21017;-66
2023/08/08 05:12:57;;;;;;;8.30;5.97;;;12.30;99.90;;;;;;5000722;28;20504;-66
2023/08/08 05:15:24;;;;;;;16.60;9.10;;;12.40;99.90;;;;;;5027474;28;20851;-66
2023/08/08 05:17:53;;;;;;;17.10;6.80;;;12.50;99.90;;;;;;5011226;28;20489;-66
2023/08/08 05:20:21;;;;;;;14.70;9.03;;;12.50;99.90;;;;;;5018933;28;21246;-66
2023/08/08 05:22:48;;;;;;;11.10;6.17;;;12.60;99.90;;;;;;4986852;28;20496;-66
2023/08/08 05:25:16;;;;;;;17.73;12.20;;;12.60;99.90;;;;;;5015643;28;20475;-67
2023/08/08 05:27:43;;;;;;;7.63;6.20;;;12.80;99.90;;;;;;5013508;28;21029;-66
2023/08/08 05:30:11;;;;;;;20.77;10.47;;;12.90;99.90;;;;;;5014228;28;21087;-66
2023/08/08 05:32:38;;;;;;;13.30;8.63;;;13.00;99.90;;;;;;5011286;28;20575;-66
2023/08/08 05:35:05;;;;;;;15.93;9.47;;;13.20;99.90;;;;;;5018243;28;20806;-66
2023/08/08 05:37:33;;;;;;;11.77;8.00;;;13.30;99.90;;;;;;5010363;28;20521;-66
2023/08/08 05:39:59;;;;;;;12.00;6.83;;;13.40;99.90;;;;;;5025295;28;20756;-66
2023/08/08 05:42:28;;;;;;;14.17;8.00;;;13.40;99.90;;;;;;5013344;28;20978;-67
2023/08/08 05:44:55;;;;;;;13.60;7.60;;;13.50;99.90;;;;;;5013745;28;20860;-66
2023/08/08 05:47:21;;;;;;;13.90;8.80;;;13.50;99.90;;;;;;5024494;28;21002;-66
2023/08/08 05:49:48;;;;;;;14.20;8.30;;;13.70;99.90;;;;;;5014510;28;20567;-66
2023/08/08 05:52:15;;;;;;;29.03;14.20;;;13.70;99.90;;;;;;5012677;28;20721;-66
2023/08/08 05:54:42;;;;;;;10.33;7.30;;;13.80;99.90;;;;;;5019994;28;20588;-65
2023/08/08 05:57:09;;;;;;;15.87;10.80;;;13.90;99.90;;;;;;5021108;28;20489;-66
2023/08/08 05:59:37;;;;;;;13.50;6.60;;;14.10;99.90;;;;;;5007735;28;20496;-66
2023/08/08 06:02:04;;;;;;;11.73;8.40;;;14.20;99.90;;;;;;5025869;28;20486;-66
2023/08/08 06:04:31;;;;;;;10.97;8.13;;;14.20;99.90;;;;;;5015865;28;20481;-67
2023/08/08 06:06:58;;;;;;;8.47;6.03;;;14.30;99.90;;;;;;5010906;28;20476;-67
2023/08/08 06:09:26;;;;;;;9.87;5.23;;;14.60;99.90;;;;;;5008489;28;20486;-67
2023/08/08 06:11:53;;;;;;;7.30;6.50;;;14.60;99.90;;;;;;5021994;28;21017;-66
2023/08/08 06:14:19;;;;;;;13.63;8.40;;;14.80;99.90;;;;;;5012315;28;20475;-67
2023/08/08 06:16:48;;;;;;;11.30;5.77;;;14.90;99.90;;;;;;5016898;28;20496;-66
2023/08/08 06:19:15;;;;;;;16.87;8.47;;;17.50;99.90;;;;;;5026493;28;20478;-66
2023/08/08 06:21:42;;;;;;;13.00;5.33;;;;;;;;;;5016512;28;20538;-66
2023/08/08 06:24:09;;;;;;;5.87;5.00;;;15.20;99.90;;;;;;5011456;28;20491;-66
2023/08/08 06:26:36;;;;;;;6.97;5.10;;;15.40;99.90;;;;;;5011329;28;20746;-66
2023/08/08 06:29:03;;;;;;;7.83;4.90;;;15.50;99.90;;;;;;5025304;28;20483;-66
2023/08/08 06:31:30;;;;;;;7.80;5.30;;;15.60;99.90;;;;;;5017640;28;20467;-66
2023/08/08 06:33:59;;;;;;;7.20;5.10;;;15.60;99.90;;;;;;5013492;28;20495;-66
2023/08/08 06:36:25;;;;;;;6.60;5.40;;;15.80;99.90;;;;;;5012737;28;20483;-66
2023/08/08 06:38:52;;;;;;;7.57;5.40;;;15.70;99.90;;;;;;5009054;28;20488;-65
2023/08/08 06:41:19;;;;;;;13.50;7.70;;;15.80;99.90;;;;;;5017700;28;20467;-65
2023/08/08 06:43:46;;;;;;;6.07;5.47;;;16.00;99.90;;;;;;5004517;28;21212;-65
2023/08/08 06:46:13;;;;;;;10.67;8.13;;;16.00;99.90;;;;;;5018527;28;20512;-66
2023/08/08 06:48:40;;;;;;;8.23;4.40;;;16.00;99.90;;;;;;4999577;28;20845;-66
2023/08/08 06:51:08;;;;;;;9.17;7.07;;;16.10;99.90;;;;;;5001461;28;20500;-65
2023/08/08 06:53:35;;;;;;;7.33;4.97;;;16.10;99.90;;;;;;5023834;28;20711;-66
2023/08/08 06:56:02;;;;;;;5.50;4.57;;;16.20;99.90;;;;;;5020603;28;20862;-66
2023/08/08 06:58:29;;;;;;;12.37;5.70;;;16.40;99.90;;;;;;5024783;28;20485;-66
2023/08/08 07:00:55;;;;;;;6.63;4.67;;;16.50;99.90;;;;;;5006786;28;20566;-64
2023/08/08 07:03:22;;;;;;;5.80;5.23;;;16.70;99.90;;;;;;5001286;28;20800;-66
2023/08/08 07:05:51;;;;;;;5.30;4.50;;;16.80;99.90;;;;;;5015745;28;20491;-66
2023/08/08 07:08:20;;;;;;;11.67;7.30;;;16.90;99.90;;;;;;5005535;28;20868;-66
2023/08/08 07:10:47;;;;;;;8.57;4.70;;;17.00;99.90;;;;;;5013892;28;20537;-65
2023/08/08 07:13:15;;;;;;;7.43;6.43;;;17.20;99.90;;;;;;5007697;28;20486;-66
2023/08/08 07:15:42;;;;;;;8.40;4.27;;;17.20;99.90;;;;;;5026688;28;20479;-66
2023/08/08 07:18:09;;;;;;;7.43;6.40;;;17.30;99.90;;;;;;5030457;28;20503;-65
2023/08/08 07:20:36;;;;;;;6.00;4.60;;;17.50;99.90;;;;;;4993006;28;20933;-66
2023/08/08 07:23:03;;;;;;;4.90;4.13;;;17.60;99.90;;;;;;5026200;28;20480;-66
2023/08/08 07:25:35;;;;;;;7.43;4.30;;;17.70;99.90;;;;;;5027471;28;21080;-65
2023/08/08 07:28:02;;;;;;;6.57;4.37;;;17.80;99.90;;;;;;5014258;28;20489;-66
2023/08/08 07:30:29;;;;;;;6.93;4.93;;;17.90;99.90;;;;;;5011756;28;21106;-67
2023/08/08 07:32:56;;;;;;;5.60;4.30;;;18.00;99.90;;;;;;5017800;28;20622;-65
2023/08/08 07:35:22;;;;;;;8.03;5.10;;;18.10;99.90;;;;;;5008217;28;21039;-66
2023/08/08 07:37:49;;;;;;;5.73;5.13;;;18.20;99.90;;;;;;5008739;28;21063;-65
2023/08/08 07:40:17;;;;;;;10.10;6.13;;;18.20;99.90;;;;;;5008902;28;20484;-66
2023/08/08 07:42:45;;;;;;;4.80;3.80;;;18.30;99.90;;;;;;5035752;28;20460;-66
2023/08/08 07:45:12;;;;;;;8.37;6.93;;;18.30;99.90;;;;;;5009561;28;20471;-66
2023/08/08 07:47:39;;;;;;;8.50;6.33;;;18.50;99.90;;;;;;5030022;28;21051;-65
2023/08/08 07:50:08;;;;;;;8.83;5.00;;;18.30;99.90;;;;;;5025475;28;20486;-65
2023/08/08 07:52:35;;;;;;;7.10;4.50;;;18.40;99.90;;;;;;5020510;28;20727;-65
2023/08/08 07:55:02;;;;;;;4.93;3.90;;;18.40;99.90;;;;;;5014737;28;20496;-66
2023/08/08 07:57:30;;;;;;;6.33;5.10;;;18.50;99.90;;;;;;5000667;28;21125;-65
2023/08/08 07:59:58;;;;;;;6.97;4.00;;;18.50;99.90;;;;;;4998171;28;20544;-66
2023/08/08 08:02:25;;;;;;;4.93;3.63;;;18.70;99.90;;;;;;5014729;28;21074;-66
2023/08/08 08:04:51;;;;;;;5.40;4.10;;;18.80;99.90;;;;;;5016932;28;20481;-66
2023/08/08 08:07:18;;;;;;;6.23;5.60;;;18.80;99.90;;;;;;5006180;28;20568;-66
2023/08/08 08:09:45;;;;;;;7.03;3.60;;;18.90;99.90;;;;;;5013554;28;20723;-66
2023/08/08 08:12:12;;;;;;;6.60;6.00;;;19.00;99.90;;;;;;5026858;28;20477;-67
2023/08/08 08:14:40;;;;;;;4.60;4.20;;;19.00;99.90;;;;;;5027574;28;21292;-67
2023/08/08 08:17:09;;;;;;;7.33;5.37;;;19.10;99.90;;;;;;5003212;28;20486;-65
2023/08/08 08:19:36;;;;;;;5.43;3.10;;;19.10;99.90;;;;;;5020554;28;20468;-65
2023/08/08 08:22:02;;;;;;;6.50;4.67;;;19.30;99.90;;;;;;5012838;28;20480;-64
2023/08/08 08:24:30;;;;;;;4.23;3.67;;;19.20;99.40;;;;;;5010497;28;21301;-66
2023/08/08 08:26:57;;;;;;;3.90;3.50;;;19.30;99.20;;;;;;4998866;28;20500;-66
2023/08/08 08:29:24;;;;;;;3.70;3.10;;;19.20;99.50;;;;;;5021722;28;20493;-65
2023/08/08 08:31:51;;;;;;;5.23;3.73;;;19.30;99.90;;;;;;5014186;28;20791;-65
2023/08/08 08:34:19;;;;;;;7.47;6.13;;;19.40;99.00;;;;;;4998779;28;20866;-65
2023/08/08 08:36:46;;;;;;;3.30;3.00;;;19.60;98.20;;;;;;5035718;28;20929;-64
2023/08/08 08:39:13;;;;;;;9.30;5.63;;;19.30;97.50;;;;;;5014809;28;20480;-66
2023/08/08 08:41:40;;;;;;;5.13;3.47;;;19.50;98.40;;;;;;5012726;28;20484;-65
2023/08/08 08:44:07;;;;;;;6.07;5.17;;;19.40;97.80;;;;;;4999190;28;20477;-65
2023/08/08 08:46:37;;;;;;;4.70;3.60;;;19.60;97.80;;;;;;5019538;28;20610;-64
2023/08/08 08:49:08;;;;;;;5.33;3.67;;;19.90;98.40;;;;;;5011663;28;20446;-65
2023/08/08 08:51:37;;;;;;;4.23;3.80;;;20.00;97.50;;;;;;5015380;28;20492;-66
2023/08/08 08:54:04;;;;;;;8.80;3.63;;;19.30;96.90;;;;;;5022392;28;20597;-65
2023/08/08 08:56:32;;;;;;;3.37;2.73;;;19.90;96.30;;;;;;5010478;28;20888;-66
2023/08/08 08:59:00;;;;;;;6.60;4.07;;;19.90;97.50;;;;;;5019296;28;20569;-65
2023/08/08 09:01:28;;;;;;;3.77;3.27;;;19.60;97.30;;;;;;5014093;28;20565;-66
2023/08/08 09:03:55;;;;;;;4.60;3.73;;;19.90;98.30;;;;;;5009306;28;20490;-66
2023/08/08 09:06:24;;;;;;;4.83;3.77;;;20.10;97.60;;;;;;5026491;28;20486;-64
2023/08/08 09:08:53;;;;;;;4.77;4.27;;;20.20;96.80;;;;;;4995489;28;20565;-66
2023/08/08 09:11:19;;;;;;;6.07;3.90;;;20.30;96.20;;;;;;5020678;28;20554;-66
2023/08/08 09:13:47;;;;;;;5.53;3.60;;;20.30;95.70;;;;;;5012347;28;20504;-66
2023/08/08 09:16:14;;;;;;;5.57;4.37;;;20.40;96.30;;;;;;5023789;28;20488;-66
2023/08/08 09:18:42;;;;;;;4.30;3.40;;;20.30;96.40;;;;;;5002427;28;20828;-65
2023/08/08 09:21:09;;;;;;;5.70;5.10;;;20.30;96.30;;;;;;5033228;28;20491;-65
2023/08/08 09:23:38;;;;;;;4.00;3.43;;;20.00;95.80;;;;;;5015673;28;20480;-65
2023/08/08 09:26:06;;;;;;;5.00;4.50;;;19.90;95.00;;;;;;5010068;28;20562;-65
2023/08/08 09:28:33;;;;;;;3.30;3.00;;;20.10;95.30;;;;;;5019554;28;20474;-64
2023/08/08 09:31:00;;;;;;;5.30;3.30;;;20.20;97.40;;;;;;5007307;28;20978;-65
2023/08/08 09:33:30;;;;;;;4.10;3.70;;;20.50;94.60;;;;;;5020057;28;20481;-66
2023/08/08 09:35:57;;;;;;;4.43;4.03;;;20.40;94.40;;;;;;4997061;28;20489;-63
2023/08/08 09:38:24;;;;;;;3.53;3.23;;;20.60;94.90;;;;;;5013808;28;20712;-64
2023/08/08 09:40:51;;;;;;;9.60;3.03;;;20.90;95.00;;;;;;5007119;28;20562;-65
2023/08/08 09:43:20;;;;;;;5.23;4.70;;;21.10;94.50;;;;;;5019225;28;20488;-66
2023/08/08 09:45:49;;;;;;;6.33;4.53;;;21.30;94.20;;;;;;5024914;28;20483;-66
2023/08/08 09:48:17;;;;;;;4.83;4.20;;;21.50;93.80;;;;;;5025488;28;20481;-65
2023/08/08 09:50:45;;;;;;;3.77;3.20;;;21.40;93.50;;;;;;4998016;28;20554;-64
2023/08/08 09:53:13;;;;;;;6.07;4.03;;;21.60;93.70;;;;;;5005866;28;20541;-66
2023/08/08 09:55:40;;;;;;;4.50;4.10;;;21.50;92.70;;;;;;5025237;28;20483;-64
2023/08/08 09:58:08;;;;;;;4.57;4.17;;;21.20;94.00;;;;;;5017628;28;20485;-66
2023/08/08 10:00:37;;;;;;;2.87;2.57;;;21.30;92.60;;;;;;5009887;28;20478;-65
2023/08/08 10:03:04;;;;;;;3.47;3.17;;;21.10;93.60;;;;;;5013386;28;20495;-64
2023/08/08 10:05:31;;;;;;;3.43;3.23;;;21.10;93.50;;;;;;5008964;28;20509;-67
2023/08/08 10:07:58;;;;;;;3.73;3.20;;;21.20;91.70;;;;;;5007376;28;21165;-62
2023/08/08 10:10:25;;;;;;;3.33;2.80;;;21.20;91.90;;;;;;5008362;28;20477;-64
2023/08/08 10:12:53;;;;;;;10.03;3.53;;;21.30;92.20;;;;;;5011375;28;20487;-65
2023/08/08 10:15:28;;;;;;;4.40;3.80;;;21.60;93.60;;;;;;5015650;28;20535;-65
2023/08/08 10:17:57;;;;;;;3.33;3.03;;;21.80;92.60;;;;;;5002403;28;20472;-65
2023/08/08 10:20:25;;;;;;;5.20;3.30;;;21.90;91.20;;;;;;4987746;28;21602;-65
2023/08/08 10:22:54;;;;;;;6.13;3.10;;;22.00;92.00;;;;;;5011446;28;20513;-65
2023/08/08 10:25:24;;;;;;;6.37;4.80;;;21.90;92.50;;;;;;5018582;28;20464;-64
2023/08/08 10:28:03;;;;;;;4.97;4.10;;;21.70;91.40;;;;;;5019656;28;20487;-62
2023/08/08 10:30:30;;;;;;;5.20;2.40;;;21.60;92.10;;;;;;5003878;28;20699;-65
2023/08/08 10:33:00;;;;;;;3.00;2.80;;;21.80;91.40;;;;;;5025659;28;20825;-65
2023/08/08 10:35:38;;;;;;;5.00;3.60;;;22.00;91.90;;;;;;5007625;28;20499;-66
2023/08/08 10:38:09;;;;;;;6.03;3.13;;;22.00;93.10;;;;;;5026998;28;20662;-65
2023/08/08 10:40:37;;;;;;;3.53;2.80;;;22.00;91.00;;;;;;5005850;28;20509;-66
2023/08/08 10:43:12;;;;;;;3.60;3.30;;;21.80;91.70;;;;;;5018680;28;20589;-65
2023/08/08 10:45:43;;;;;;;2.90;2.70;;;22.00;90.90;;;;;;5009513;28;20613;-64
2023/08/08 10:48:12;;;;;;;4.77;4.37;;;22.10;90.90;;;;;;5011812;28;20987;-64
2023/08/08 10:50:41;;;;;;;4.23;3.50;;;22.10;90.20;;;;;;5017431;28;20464;-61
2023/08/08 10:53:11;;;;;;;5.30;4.07;;;22.00;90.70;;;;;;5026116;28;20463;-63
2023/08/08 10:55:38;;;;;;;4.57;3.10;;;21.70;90.50;;;;;;5018365;28;20448;-64
2023/08/08 10:58:07;;;;;;;3.80;3.50;;;21.70;91.50;;;;;;5023993;28;20488;-65
2023/08/08 11:00:35;;;;;;;3.20;2.73;;;21.70;90.60;;;;;;5015384;28;20488;-65
2023/08/08 11:03:04;;;;;;;4.40;4.00;;;22.40;90.30;;;;;;5020796;28;20557;-65
2023/08/08 11:05:33;;;;;;;2.70;2.50;;;21.90;91.00;;;;;;5021902;28;21026;-65
2023/08/08 11:08:01;;;;;;;3.50;3.00;;;21.80;91.60;;;;;;5007755;28;20479;-64
2023/08/08 11:10:30;;;;;;;3.27;3.00;;;21.80;91.30;;;;;;5030545;28;20494;-65
2023/08/08 11:12:59;;;;;;;3.67;3.37;;;21.90;91.00;;;;;;5017637;28;20564;-64
2023/08/08 11:15:27;;;;;;;3.50;3.20;;;22.00;91.30;;;;;;5009234;28;20515;-66
2023/08/08 11:17:54;;;;;;;4.30;2.97;;;22.40;93.50;;;;;;5015753;28;20477;-66
2023/08/08 11:20:22;;;;;;;4.00;3.70;;;22.70;90.90;;;;;;5007760;28;20554;-66
2023/08/08 11:22:54;;;;;;;3.50;3.20;;;22.80;88.70;;;;;;5017051;28;20463;-65
2023/08/08 11:25:21;;;;;;;4.10;3.80;;;22.70;88.60;;;;;;5008278;28;20446;-65
2023/08/08 11:27:52;;;;;;;3.00;2.73;;;22.90;90.20;;;;;;5012717;28;20477;-65
2023/08/08 11:30:19;;;;;;;5.00;4.33;;;23.00;90.30;;;;;;5015508;28;20911;-66
2023/08/08 11:32:47;;;;;;;2.87;2.67;;;23.10;90.40;;;;;;5008707;28;20915;-64
2023/08/08 11:35:17;;;;;;;5.40;4.90;;;22.90;88.90;;;;;;5029991;28;20451;-65
2023/08/08 11:37:44;;;;;;;3.23;2.93;;;22.90;86.50;;;;;;5000765;28;20511;-66
2023/08/08 11:40:14;;;;;;;4.50;4.10;;;23.20;90.20;;;;;;5033189;28;20485;-65
2023/08/08 11:42:42;;;;;;;2.33;2.13;;;23.30;87.50;;;;;;5014439;28;20455;-65
2023/08/08 11:45:10;;;;;;;4.57;4.17;;;23.30;86.60;;;;;;5017095;28;20847;-63
2023/08/08 11:47:38;;;;;;;4.10;2.50;;;23.20;89.30;;;;;;5000013;28;20483;-65
2023/08/08 11:50:07;;;;;;;6.90;3.47;;;23.20;88.30;;;;;;5012090;28;20564;-63
2023/08/08 11:52:36;;;;;;;3.00;2.70;;;23.20;90.40;;;;;;5006897;28;20896;-65
2023/08/08 11:55:03;;;;;;;3.80;3.50;;;23.20;88.00;;;;;;5010001;28;20547;-63
2023/08/08 11:57:36;;;;;;;3.10;2.40;;;23.20;88.30;;;;;;5007699;28;20512;-63
2023/08/08 12:00:07;;;;;;;3.60;3.30;;;23.20;87.40;;;;;;5011790;28;20485;-67
2023/08/08 12:02:34;;;;;;;2.90;2.60;;;23.40;85.40;;;;;;5014418;28;20485;-64
2023/08/08 12:05:05;;;;;;;2.97;2.77;;;23.50;88.70;;;;;;5015224;28;21063;-63
2023/08/08 12:07:34;;;;;;;3.37;3.00;;;23.50;86.80;;;;;;5013607;28;20980;-65
2023/08/08 12:10:01;;;;;;;3.00;2.70;;;23.30;84.80;;;;;;5021352;28;20508;-65
2023/08/08 12:12:28;;;;;;;17.07;3.10;;;23.10;86.70;;;;;;5000498;28;20457;-66
2023/08/08 12:14:56;;;;;;;3.37;3.07;;;23.10;89.30;;;;;;5020340;28;20480;-65
2023/08/08 12:17:23;;;;;;;4.90;3.30;;;22.90;85.80;;;;;;4996135;28;20459;-65
2023/08/08 12:19:50;;;;;;;4.17;3.47;;;22.90;87.10;;;;;;5015381;28;20819;-65
2023/08/08 12:22:17;;;;;;;5.90;5.07;;;22.90;87.90;;;;;;5005193;28;21205;-65
2023/08/08 12:24:44;;;;;;;4.87;3.43;;;23.00;87.20;;;;;;4998624;28;20444;-65
2023/08/08 12:27:11;;;;;;;5.93;5.43;;;23.10;85.70;;;;;;4995135;28;20522;-65
2023/08/08 12:29:38;;;;;;;3.77;3.23;;;23.30;88.70;;;;;;5003899;28;20840;-66
2023/08/08 12:32:07;;;;;;;5.43;3.20;;;23.30;87.50;;;;;;5013832;28;20803;-64
2023/08/08 12:34:35;;;;;;;3.57;3.27;;;23.70;89.00;;;;;;4996731;28;21011;-63
2023/08/08 12:37:02;;;;;;;4.03;3.43;;;23.90;89.30;;;;;;5001111;28;20453;-64
2023/08/08 12:39:29;;;;;;;3.97;3.67;;;23.90;88.60;;;;;;4986940;28;20829;-66
2023/08/08 12:41:56;;;;;;;5.20;3.57;;;23.80;85.00;;;;;;5012936;28;20488;-65
2023/08/08 12:44:26;;;;;;;5.10;4.37;;;23.70;87.10;;;;;;4997698;28;20857;-65